Altamont, Kansas
Current Conditions -  °F | °C
As of 3:52 PM on Wednesday 28 Jan 2015 (Local Time) from KPPF Reporting Station
Clear Clear  
Wind Chill: 71°   Ceiling: Unl
Heat Index: 71°   Visibility: 10mi
Dew Point: 42°   Wind: 15mph
Humidity: 35%   Direction: 180°S
Pressure: 29.79"   Gusts: 25mph
Location:  37.19°N, 95.3°W
Report Text: KPPF 282152Z AUTO 18013G22KT 10SM CLR 22/06 A2979 RMK AO2 SLP082 T02170056
Loading
Personal Weather Stations






























Interactive Weather Map New forecast layout! Learn more

10-Day Weather Forecast

Advertisements
Track Severe Weather on mobile